createdAt,value
2018-02-22T00:00:23.781Z,20.35
2018-02-22T00:00:57.469Z,19.27
2018-02-22T00:01:31.150Z,20.10
2018-02-22T00:02:04.191Z,18.95
2018-02-22T00:02:38.641Z,20.15
2018-02-22T00:03:12.326Z,19.67
2018-02-22T00:03:46.010Z,20.05
2018-02-22T00:04:19.508Z,20.50
2018-02-22T00:04:53.250Z,21.00
2018-02-22T00:05:27.714Z,20.35
2018-02-22T00:06:01.398Z,20.52
2018-02-22T00:06:35.083Z,20.88
2018-02-22T00:07:08.976Z,21.12
2018-02-22T00:07:42.665Z,19.92
2018-02-22T00:08:16.358Z,19.83
2018-02-22T00:08:50.046Z,20.67
2018-02-22T00:09:23.735Z,19.08
2018-02-22T00:09:57.426Z,19.95
2018-02-22T00:10:31.106Z,19.58
2018-02-22T00:11:04.777Z,19.30
2018-02-22T00:11:38.468Z,20.30
2018-02-22T00:12:12.178Z,19.52
2018-02-22T00:12:45.876Z,20.08
2018-02-22T00:13:19.573Z,20.45
2018-02-22T00:13:53.272Z,20.12
2018-02-22T00:14:26.952Z,18.73
2018-02-22T00:15:00.635Z,18.60
2018-02-22T00:15:34.327Z,20.75
2018-02-22T00:16:08.015Z,19.70
2018-02-22T00:16:41.695Z,18.85
2018-02-22T00:17:15.395Z,20.45
2018-02-22T00:17:49.086Z,19.00
2018-02-22T00:18:22.805Z,18.27
2018-02-22T00:18:56.495Z,18.83
2018-02-22T00:19:30.179Z,18.92
2018-02-22T00:20:03.857Z,18.80
2018-02-22T00:20:37.533Z,18.83
2018-02-22T00:21:11.218Z,19.35
2018-02-22T00:21:44.893Z,18.73
2018-02-22T00:22:18.635Z,18.60
2018-02-22T00:22:52.323Z,18.27
2018-02-22T00:23:26.010Z,18.58
2018-02-22T00:23:59.726Z,18.37
2018-02-22T00:24:34.209Z,20.30
2018-02-22T00:25:07.231Z,19.02
2018-02-22T00:25:40.903Z,20.15
2018-02-22T00:26:15.364Z,19.17
2018-02-22T00:26:49.054Z,20.48
2018-02-22T00:27:22.763Z,20.75
2018-02-22T00:27:56.451Z,20.15
2018-02-22T00:28:30.139Z,20.23
2018-02-22T00:29:03.832Z,22.13
2018-02-22T00:29:37.525Z,20.45
2018-02-22T00:30:11.210Z,19.42
2018-02-22T00:30:44.988Z,21.60
2018-02-22T00:31:18.681Z,19.30
2018-02-22T00:31:52.408Z,21.25
2018-02-22T00:32:26.891Z,20.08
2018-02-22T00:33:00.410Z,21.23
2018-02-22T00:33:34.864Z,20.88
2018-02-22T00:34:08.562Z,23.20
2018-02-22T00:34:42.246Z,20.27
2018-02-22T00:35:15.934Z,20.80
2018-02-22T00:35:49.615Z,20.73
2018-02-22T00:36:23.296Z,21.27
2018-02-22T00:36:56.986Z,20.92
2018-02-22T00:37:30.703Z,21.45
2018-02-22T00:38:04.390Z,21.92
2018-02-22T00:38:38.075Z,20.60
2018-02-22T00:39:11.760Z,20.55
2018-02-22T00:39:45.451Z,21.45
2018-02-22T00:40:19.134Z,20.10
2018-02-22T00:40:52.840Z,20.55
2018-02-22T00:41:26.694Z,22.00
2018-02-22T00:42:00.378Z,20.88
2018-02-22T00:42:34.104Z,21.17
2018-02-22T00:43:07.793Z,20.60
2018-02-22T00:43:41.493Z,21.42
2018-02-22T00:44:15.197Z,22.55
2018-02-22T00:44:48.888Z,21.25
2018-02-22T00:45:22.632Z,21.70
2018-02-22T00:45:56.306Z,21.12
2018-02-22T00:46:30.750Z,21.15
2018-02-22T00:47:04.102Z,20.08
2018-02-22T00:47:37.821Z,19.27
2018-02-22T00:48:11.510Z,20.75
2018-02-22T00:48:45.186Z,20.88
2018-02-22T00:49:18.871Z,21.17
2018-02-22T00:49:52.543Z,21.60
2018-02-22T00:50:26.987Z,21.87
2018-02-22T00:51:00.674Z,20.48
2018-02-22T00:51:34.346Z,22.02
2018-02-22T00:52:08.019Z,20.73
2018-02-22T00:52:42.481Z,21.87
2018-02-22T00:53:16.159Z,20.20
2018-02-22T00:53:49.532Z,20.90
2018-02-22T00:54:23.206Z,20.55
2018-02-22T00:54:56.876Z,20.95
2018-02-22T00:55:31.322Z,20.70
2018-02-22T00:56:05.009Z,21.52
2018-02-22T00:56:38.697Z,21.73
2018-02-22T00:57:12.361Z,21.20
2018-02-22T00:57:46.080Z,22.33
2018-02-22T00:58:19.757Z,21.45
2018-02-22T00:58:53.457Z,19.90
2018-02-22T00:59:27.132Z,22.25
2018-02-22T01:00:00.883Z,21.95
2018-02-22T01:00:34.561Z,20.83
2018-02-22T01:01:08.238Z,21.12
2018-02-22T01:01:41.917Z,22.48
2018-02-22T01:02:15.593Z,23.50
2018-02-22T01:02:49.288Z,23.50
2018-02-22T01:03:22.958Z,22.05
2018-02-22T01:03:56.625Z,23.40
2018-02-22T01:04:31.095Z,22.70
2018-02-22T01:05:04.783Z,23.40
2018-02-22T01:05:38.463Z,24.92
2018-02-22T01:06:12.138Z,27.27
2018-02-22T01:06:45.814Z,26.55
2018-02-22T01:07:19.498Z,29.98
2018-02-22T01:07:54.166Z,30.80
2018-02-22T01:08:27.846Z,29.30
2018-02-22T01:09:01.343Z,27.23
2018-02-22T01:09:35.002Z,26.60
2018-02-22T01:10:08.358Z,25.35
2018-02-22T01:10:42.050Z,25.20
2018-02-22T01:11:15.725Z,24.65
2018-02-22T01:11:50.171Z,25.88
2018-02-22T01:12:23.838Z,26.10
2018-02-22T01:12:57.971Z,25.33
2018-02-22T01:13:31.639Z,25.80
2018-02-22T01:14:05.404Z,24.98
2018-02-22T01:14:39.091Z,25.85
2018-02-22T01:15:12.763Z,22.95
2018-02-22T01:15:46.446Z,24.10
2018-02-22T01:16:20.111Z,23.58
2018-02-22T01:16:53.799Z,22.83
2018-02-22T01:17:27.467Z,24.27
2018-02-22T01:18:01.434Z,23.77
2018-02-22T01:18:35.870Z,23.55
2018-02-22T01:19:09.551Z,22.83
2018-02-22T01:19:43.251Z,23.12
2018-02-22T01:20:16.926Z,22.40
2018-02-22T01:20:51.358Z,24.27
2018-02-22T01:21:25.036Z,24.55
2018-02-22T01:21:58.714Z,23.65
2018-02-22T01:22:32.388Z,23.85
2018-02-22T01:23:06.078Z,25.60
2018-02-22T01:23:40.515Z,24.25
2018-02-22T01:24:14.189Z,22.10
2018-02-22T01:24:47.880Z,24.00
2018-02-22T01:25:21.227Z,23.77
2018-02-22T01:25:54.897Z,23.65
2018-02-22T01:26:28.578Z,23.52
2018-02-22T01:27:02.244Z,24.27
2018-02-22T01:27:35.932Z,23.15
2018-02-22T01:28:09.625Z,22.62
2018-02-22T01:28:43.290Z,23.65
2018-02-22T01:29:17.714Z,23.00
2018-02-22T01:29:51.381Z,21.70
2018-02-22T01:30:25.828Z,21.65
2018-02-22T01:30:59.507Z,22.27
2018-02-22T01:31:33.188Z,21.95
2018-02-22T01:32:06.883Z,22.20
2018-02-22T01:32:40.551Z,22.23
2018-02-22T01:33:15.015Z,22.05
2018-02-22T01:33:48.718Z,21.80
2018-02-22T01:34:22.394Z,22.35
2018-02-22T01:34:56.459Z,21.45
2018-02-22T01:35:30.142Z,23.65
2018-02-22T01:36:03.832Z,22.85
2018-02-22T01:36:38.259Z,24.00
2018-02-22T01:37:11.935Z,21.62
2018-02-22T01:37:45.604Z,23.77
2018-02-22T01:38:20.432Z,22.67
2018-02-22T01:38:54.096Z,23.45
2018-02-22T01:39:28.539Z,23.58
2018-02-22T01:40:02.205Z,22.75
2018-02-22T01:40:36.639Z,21.80
2018-02-22T01:41:10.319Z,23.55
2018-02-22T01:41:44.747Z,24.08
2018-02-22T01:42:18.417Z,23.00
2018-02-22T01:42:52.087Z,24.27
2018-02-22T01:43:26.567Z,22.75
2018-02-22T01:44:00.235Z,22.52
2018-02-22T01:44:33.931Z,22.90
2018-02-22T01:45:07.619Z,23.40
2018-02-22T01:45:41.308Z,22.55
2018-02-22T01:46:14.982Z,22.13
2018-02-22T01:46:48.484Z,21.23
2018-02-22T01:47:22.156Z,23.23
2018-02-22T01:47:55.871Z,20.33
2018-02-22T01:48:29.575Z,21.65
2018-02-22T01:49:02.935Z,22.87
2018-02-22T01:49:36.610Z,22.08
2018-02-22T01:50:10.288Z,22.90
2018-02-22T01:50:50.494Z,22.23
2018-02-22T01:51:24.171Z,22.45
2018-02-22T01:51:57.849Z,22.80
2018-02-22T01:52:31.198Z,21.50
2018-02-22T01:53:04.871Z,22.52
2018-02-22T01:53:38.591Z,21.58
2018-02-22T01:54:12.259Z,21.10
2018-02-22T01:54:45.936Z,22.45
2018-02-22T01:55:20.381Z,22.42
2018-02-22T01:55:54.067Z,23.15
2018-02-22T01:56:27.725Z,21.55
2018-02-22T01:57:01.406Z,22.17
2018-02-22T01:57:35.854Z,23.55
2018-02-22T01:58:09.542Z,22.27
2018-02-22T01:58:43.243Z,21.87
2018-02-22T01:59:16.923Z,22.35
2018-02-22T01:59:50.603Z,21.90
2018-02-22T02:00:24.281Z,22.70
2018-02-22T02:00:57.965Z,21.25
2018-02-22T02:01:31.651Z,23.00
2018-02-22T02:02:05.338Z,22.80
2018-02-22T02:02:39.776Z,22.95
2018-02-22T02:03:13.450Z,22.05
2018-02-22T02:03:47.157Z,22.95
2018-02-22T02:04:20.831Z,22.95
2018-02-22T02:04:54.510Z,22.62
2018-02-22T02:05:28.190Z,24.20
2018-02-22T02:06:02.635Z,23.10
2018-02-22T02:06:36.384Z,22.80
2018-02-22T02:07:10.837Z,23.80
2018-02-22T02:07:44.520Z,23.87
2018-02-22T02:08:18.191Z,21.95
2018-02-22T02:08:51.869Z,22.23
2018-02-22T02:09:26.305Z,21.30
2018-02-22T02:09:59.977Z,21.90
2018-02-22T02:10:33.690Z,21.73
2018-02-22T02:11:07.360Z,21.33
2018-02-22T02:11:41.030Z,20.92
2018-02-22T02:12:15.470Z,22.08
2018-02-22T02:12:49.133Z,23.23
2018-02-22T02:13:23.565Z,21.02
2018-02-22T02:13:57.276Z,22.23
2018-02-22T02:14:30.947Z,22.67
2018-02-22T02:15:04.294Z,21.60
2018-02-22T02:15:38.800Z,23.33
2018-02-22T02:16:12.906Z,21.55
2018-02-22T02:16:47.343Z,22.42
2018-02-22T02:17:21.008Z,21.52
2018-02-22T02:17:55.450Z,23.02
2018-02-22T02:18:29.126Z,21.42
2018-02-22T02:19:02.818Z,20.70
2018-02-22T02:19:36.160Z,21.83
2018-02-22T02:20:10.268Z,22.70
2018-02-22T02:20:44.724Z,22.25
2018-02-22T02:21:18.571Z,22.98
2018-02-22T02:21:53.005Z,22.92
2018-02-22T02:22:26.669Z,22.60
2018-02-22T02:23:01.103Z,23.20
2018-02-22T02:23:34.779Z,22.98
2018-02-22T02:24:08.491Z,22.50
2018-02-22T02:24:42.171Z,23.38
2018-02-22T02:25:15.834Z,22.80
2018-02-22T02:25:50.294Z,21.45
2018-02-22T02:26:23.990Z,21.80
2018-02-22T02:26:57.658Z,23.05
2018-02-22T02:27:31.335Z,20.75
2018-02-22T02:28:08.839Z,20.55
2018-02-22T02:28:42.508Z,21.65
2018-02-22T02:29:16.473Z,22.15
2018-02-22T02:29:50.906Z,21.20
2018-02-22T02:30:24.571Z,22.20
2018-02-22T02:30:59.019Z,21.40
2018-02-22T02:31:32.772Z,21.65
2018-02-22T02:32:07.210Z,20.00
2018-02-22T02:32:40.883Z,21.98
2018-02-22T02:33:14.558Z,21.70
2018-02-22T02:33:48.994Z,21.23
2018-02-22T02:34:22.749Z,21.58
2018-02-22T02:34:57.187Z,21.23
2018-02-22T02:35:30.862Z,22.27
2018-02-22T02:36:04.217Z,21.33
2018-02-22T02:36:38.101Z,21.67
2018-02-22T02:37:11.783Z,19.85
2018-02-22T02:37:45.459Z,22.45
2018-02-22T02:38:19.129Z,21.17
2018-02-22T02:38:52.810Z,21.60
2018-02-22T02:39:26.764Z,20.75
2018-02-22T02:40:00.448Z,21.83
2018-02-22T02:40:34.128Z,21.58
2018-02-22T02:41:07.803Z,20.27
2018-02-22T02:41:41.563Z,20.88
2018-02-22T02:42:15.231Z,20.85
2018-02-22T02:42:49.663Z,21.00
2018-02-22T02:43:23.331Z,20.45
2018-02-22T02:43:57.757Z,20.12
2018-02-22T02:44:31.459Z,20.77
2018-02-22T02:45:04.801Z,21.75
2018-02-22T02:45:39.238Z,21.73
2018-02-22T02:46:12.929Z,22.30
2018-02-22T02:46:46.596Z,22.25
2018-02-22T02:47:21.055Z,20.85
2018-02-22T02:47:54.728Z,21.67
2018-02-22T02:48:28.421Z,20.35
2018-02-22T02:49:02.119Z,21.67
2018-02-22T02:49:35.811Z,19.58
2018-02-22T02:50:09.482Z,20.48
2018-02-22T02:50:43.160Z,21.50
2018-02-22T02:51:16.826Z,19.90
2018-02-22T02:51:51.261Z,21.80
2018-02-22T02:52:24.946Z,21.67
2018-02-22T02:52:58.626Z,20.67
2018-02-22T02:53:33.069Z,20.83
2018-02-22T02:54:06.738Z,20.48
2018-02-22T02:54:40.730Z,20.35
2018-02-22T02:55:14.436Z,20.37
2018-02-22T02:55:48.116Z,20.23
2018-02-22T02:56:21.806Z,19.50
2018-02-22T02:56:55.479Z,20.95
2018-02-22T02:57:29.925Z,20.42
2018-02-22T02:58:03.587Z,21.77
2018-02-22T02:58:37.266Z,21.60
2018-02-22T02:59:11.724Z,19.83
2018-02-22T02:59:45.230Z,19.35
2018-02-22T03:00:18.916Z,20.48
2018-02-22T03:00:52.591Z,19.85
2018-02-22T03:01:26.274Z,20.70
2018-02-22T03:01:59.951Z,21.77
2018-02-22T03:02:33.622Z,20.83
2018-02-22T03:03:07.305Z,20.70
2018-02-22T03:03:40.992Z,19.80
2018-02-22T03:04:14.663Z,21.45
2018-02-22T03:04:49.146Z,20.92
2018-02-22T03:05:22.820Z,19.92
2018-02-22T03:05:56.499Z,21.65
2018-02-22T03:06:30.164Z,20.75
2018-02-22T03:07:03.506Z,20.17
2018-02-22T03:07:37.187Z,20.60
2018-02-22T03:08:10.859Z,21.87
2018-02-22T03:08:44.531Z,21.02
2018-02-22T03:09:18.223Z,21.00
2018-02-22T03:09:51.932Z,20.42
2018-02-22T03:10:25.613Z,19.60
2018-02-22T03:10:59.287Z,20.80
2018-02-22T03:11:32.964Z,21.02
2018-02-22T03:12:06.640Z,20.60
2018-02-22T03:12:41.086Z,21.17
2018-02-22T03:13:14.750Z,20.50
2018-02-22T03:13:48.406Z,20.08
2018-02-22T03:14:22.132Z,20.83
2018-02-22T03:14:56.111Z,20.10
2018-02-22T03:15:30.541Z,21.20
2018-02-22T03:16:04.219Z,20.92
2018-02-22T03:16:38.651Z,19.92
2018-02-22T03:17:12.313Z,20.25
2018-02-22T03:17:46.750Z,20.83
2018-02-22T03:18:20.423Z,21.98
2018-02-22T03:18:54.102Z,20.77
2018-02-22T03:19:28.554Z,19.15
2018-02-22T03:20:02.263Z,19.35
2018-02-22T03:20:35.940Z,21.05
2018-02-22T03:21:09.615Z,20.88
2018-02-22T03:21:43.289Z,20.92
2018-02-22T03:22:16.979Z,20.85
2018-02-22T03:22:50.647Z,21.00
2018-02-22T03:23:25.091Z,21.52
2018-02-22T03:23:58.765Z,20.75
2018-02-22T03:24:31.797Z,21.02
2018-02-22T03:25:06.262Z,20.37
2018-02-22T03:25:39.983Z,20.52
2018-02-22T03:26:13.665Z,19.95
2018-02-22T03:26:47.329Z,20.88
2018-02-22T03:27:20.994Z,21.67
2018-02-22T03:27:54.670Z,21.15
2018-02-22T03:28:29.109Z,20.15
2018-02-22T03:29:02.792Z,20.60
2018-02-22T03:29:36.481Z,20.58
2018-02-22T03:30:10.564Z,21.62
2018-02-22T03:30:45.021Z,21.60
2018-02-22T03:31:18.862Z,22.48
2018-02-22T03:31:53.307Z,21.80
2018-02-22T03:32:26.994Z,22.80
2018-02-22T03:33:00.659Z,22.35
2018-02-22T03:33:34.346Z,23.33
2018-02-22T03:34:08.028Z,23.67
2018-02-22T03:34:42.459Z,23.08
2018-02-22T03:35:16.165Z,23.15
2018-02-22T03:35:49.822Z,24.33
2018-02-22T03:36:23.498Z,22.33
2018-02-22T03:36:57.955Z,22.55
2018-02-22T03:37:31.634Z,24.50
2018-02-22T03:38:05.308Z,21.02
2018-02-22T03:38:38.981Z,22.37
2018-02-22T03:39:13.408Z,21.50
2018-02-22T03:39:47.086Z,23.50
2018-02-22T03:40:20.795Z,22.62
2018-02-22T03:40:54.462Z,22.85
2018-02-22T03:41:28.131Z,22.50
2018-02-22T03:42:02.579Z,21.83
2018-02-22T03:42:36.241Z,22.15
2018-02-22T03:43:10.677Z,21.55
2018-02-22T03:43:44.358Z,21.05
2018-02-22T03:44:18.034Z,21.27
2018-02-22T03:44:51.718Z,22.30
2018-02-22T03:45:26.186Z,21.95
2018-02-22T03:45:59.899Z,21.52
2018-02-22T03:46:33.405Z,20.55
2018-02-22T03:47:07.852Z,20.05
2018-02-22T03:47:41.520Z,21.25
2018-02-22T03:48:15.196Z,20.60
2018-02-22T03:48:48.880Z,20.60
2018-02-22T03:49:23.324Z,19.85
2018-02-22T03:49:56.993Z,21.17
2018-02-22T03:50:30.988Z,21.48
2018-02-22T03:51:04.731Z,21.08
2018-02-22T03:51:39.914Z,21.23
2018-02-22T03:52:13.594Z,21.60
2018-02-22T03:52:47.270Z,21.62
2018-02-22T03:53:21.715Z,21.12
2018-02-22T03:53:55.380Z,21.25
2018-02-22T03:54:28.872Z,20.42
2018-02-22T03:55:02.557Z,21.20
2018-02-22T03:55:36.577Z,21.67
2018-02-22T03:56:10.239Z,21.48
2018-02-22T03:56:43.914Z,19.80
2018-02-22T03:57:18.361Z,20.80
2018-02-22T03:57:52.034Z,19.35
2018-02-22T03:58:25.690Z,20.40
2018-02-22T03:58:59.368Z,20.42
2018-02-22T03:59:33.051Z,20.58
2018-02-22T04:00:06.729Z,20.88
2018-02-22T04:00:40.805Z,20.80
2018-02-22T04:01:14.478Z,20.92
2018-02-22T04:01:48.145Z,21.33
2018-02-22T04:02:22.406Z,21.52
2018-02-22T04:02:56.086Z,20.60
2018-02-22T04:03:29.766Z,21.12
2018-02-22T04:04:03.437Z,20.05
2018-02-22T04:04:37.133Z,20.30
2018-02-22T04:05:10.919Z,21.27
2018-02-22T04:05:44.631Z,20.98
2018-02-22T04:06:18.322Z,21.62
2018-02-22T04:06:51.990Z,19.50
2018-02-22T04:07:25.666Z,20.10
2018-02-22T04:08:00.130Z,19.20
2018-02-22T04:08:33.828Z,20.95
2018-02-22T04:09:07.518Z,21.20
2018-02-22T04:09:41.208Z,20.90
2018-02-22T04:10:14.901Z,19.75
2018-02-22T04:10:48.620Z,20.42
2018-02-22T04:11:23.062Z,20.37
2018-02-22T04:11:56.735Z,21.08
2018-02-22T04:12:30.422Z,20.37
2018-02-22T04:13:04.115Z,20.85
2018-02-22T04:13:37.802Z,20.60
2018-02-22T04:14:11.475Z,20.08
2018-02-22T04:14:45.922Z,21.00
2018-02-22T04:15:19.793Z,21.15
2018-02-22T04:15:53.483Z,19.62
2018-02-22T04:16:27.171Z,21.45
2018-02-22T04:17:00.863Z,22.20
2018-02-22T04:17:34.564Z,20.55
2018-02-22T04:18:08.255Z,21.73
2018-02-22T04:18:41.763Z,20.95
2018-02-22T04:19:15.459Z,21.87
2018-02-22T04:19:48.963Z,21.12
2018-02-22T04:20:22.654Z,21.27
2018-02-22T04:20:56.177Z,20.45
2018-02-22T04:21:29.856Z,20.17
2018-02-22T04:22:04.290Z,20.27
2018-02-22T04:22:37.964Z,20.80
2018-02-22T04:23:11.638Z,21.40
2018-02-22T04:23:46.104Z,21.48
2018-02-22T04:24:19.118Z,20.45
2018-02-22T04:24:53.559Z,20.00
2018-02-22T04:25:27.228Z,19.58
2018-02-22T04:26:02.032Z,20.05
2018-02-22T04:26:36.478Z,21.27
2018-02-22T04:27:10.159Z,20.48
2018-02-22T04:27:43.830Z,19.98
2018-02-22T04:28:18.281Z,19.65
2018-02-22T04:28:51.951Z,20.80
2018-02-22T04:29:25.629Z,20.90
2018-02-22T04:29:59.295Z,21.42
2018-02-22T04:30:33.738Z,19.77
2018-02-22T04:31:07.802Z,22.27
2018-02-22T04:31:42.246Z,20.23
2018-02-22T04:32:15.582Z,20.62
2018-02-22T04:32:49.256Z,21.15
2018-02-22T04:33:22.929Z,20.90
2018-02-22T04:33:56.607Z,20.10
2018-02-22T04:34:30.298Z,21.35
2018-02-22T04:35:04.012Z,18.80
2018-02-22T04:35:37.705Z,21.25
2018-02-22T04:36:11.428Z,20.42
2018-02-22T04:36:45.876Z,20.70
2018-02-22T04:37:19.550Z,19.92
2018-02-22T04:37:53.226Z,20.92
2018-02-22T04:38:26.913Z,20.42
2018-02-22T04:39:00.594Z,21.73
2018-02-22T04:39:35.045Z,20.10
2018-02-22T04:40:08.717Z,20.52
2018-02-22T04:40:42.404Z,22.52
2018-02-22T04:41:16.136Z,22.40
2018-02-22T04:41:49.810Z,22.48
2018-02-22T04:42:23.487Z,21.92
2018-02-22T04:42:57.183Z,23.02
2018-02-22T04:43:30.870Z,21.37
2018-02-22T04:44:04.536Z,21.40
2018-02-22T04:44:38.220Z,20.37
2018-02-22T04:45:11.877Z,22.20
2018-02-22T04:45:45.565Z,22.00
2018-02-22T04:46:19.292Z,21.08
2018-02-22T04:46:52.967Z,21.42
2018-02-22T04:47:27.417Z,21.75
2018-02-22T04:48:01.103Z,19.45
2018-02-22T04:48:34.778Z,20.40
2018-02-22T04:49:08.463Z,21.12
2018-02-22T04:49:42.188Z,21.10
2018-02-22T04:50:15.882Z,22.50
2018-02-22T04:50:49.562Z,21.25
2018-02-22T04:51:23.257Z,20.27
2018-02-22T04:51:57.721Z,19.75
2018-02-22T04:52:32.168Z,21.70
2018-02-22T04:53:05.854Z,20.80
2018-02-22T04:53:39.575Z,21.30
2018-02-22T04:54:13.252Z,20.10
2018-02-22T04:54:46.942Z,21.65
2018-02-22T04:55:20.633Z,20.85
2018-02-22T04:55:54.311Z,23.15
2018-02-22T04:56:28.056Z,19.98
2018-02-22T04:57:02.502Z,22.80
2018-02-22T04:57:36.200Z,21.92
2018-02-22T04:58:09.878Z,20.35
2018-02-22T04:58:43.553Z,23.48
2018-02-22T04:59:17.234Z,21.55
2018-02-22T04:59:50.890Z,21.40
2018-02-22T05:00:24.565Z,22.62
2018-02-22T05:00:58.239Z,22.08
2018-02-22T05:01:31.961Z,23.10
2018-02-22T05:02:05.310Z,22.10
2018-02-22T05:02:39.004Z,23.15
2018-02-22T05:03:12.690Z,22.58
2018-02-22T05:03:46.386Z,21.77
2018-02-22T05:04:20.067Z,21.05
2018-02-22T05:04:53.754Z,20.67
2018-02-22T05:05:27.426Z,21.98
2018-02-22T05:06:01.090Z,20.33
2018-02-22T05:06:35.563Z,21.70
2018-02-22T05:07:09.231Z,21.37
2018-02-22T05:07:42.924Z,22.35
2018-02-22T05:08:16.606Z,20.20
2018-02-22T05:08:50.255Z,22.20
2018-02-22T05:09:24.700Z,22.33
2018-02-22T05:09:58.373Z,21.12
2018-02-22T05:10:32.051Z,22.27
2018-02-22T05:11:05.714Z,23.25
2018-02-22T05:11:39.438Z,21.23
2018-02-22T05:12:13.113Z,20.40
2018-02-22T05:12:47.567Z,22.23
2018-02-22T05:13:21.270Z,21.90
2018-02-22T05:13:54.950Z,21.92
2018-02-22T05:14:28.639Z,22.85
2018-02-22T05:15:02.356Z,21.67
2018-02-22T05:15:36.048Z,22.30
2018-02-22T05:16:09.714Z,25.02
2018-02-22T05:16:43.420Z,23.08
2018-02-22T05:17:17.095Z,22.73
2018-02-22T05:17:50.783Z,22.77
2018-02-22T05:18:24.458Z,22.50
2018-02-22T05:18:58.122Z,22.67
2018-02-22T05:19:31.794Z,21.85
2018-02-22T05:20:05.455Z,23.75
2018-02-22T05:20:38.470Z,21.77
2018-02-22T05:21:12.155Z,22.08
2018-02-22T05:21:45.863Z,23.17
2018-02-22T05:22:19.537Z,22.08
2018-02-22T05:22:53.982Z,23.30
2018-02-22T05:23:27.666Z,23.67
2018-02-22T05:24:01.337Z,24.00
2018-02-22T05:24:35.014Z,23.02
2018-02-22T05:25:09.455Z,22.95
2018-02-22T05:25:43.164Z,22.13
2018-02-22T05:26:16.825Z,23.33
2018-02-22T05:26:50.539Z,21.73
2018-02-22T05:27:24.218Z,23.45
2018-02-22T05:27:57.919Z,22.75
2018-02-22T05:28:31.594Z,22.50
2018-02-22T05:29:05.272Z,22.67
2018-02-22T05:29:38.938Z,22.30
2018-02-22T05:30:13.396Z,22.65
2018-02-22T05:30:47.066Z,24.25
2018-02-22T05:31:20.751Z,23.15
2018-02-22T05:31:54.443Z,21.73
2018-02-22T05:32:28.128Z,23.33
2018-02-22T05:33:01.785Z,23.90
2018-02-22T05:33:36.234Z,22.75
2018-02-22T05:34:09.914Z,22.83
2018-02-22T05:34:43.586Z,24.33
2018-02-22T05:35:17.270Z,23.25
2018-02-22T05:35:51.698Z,23.80
2018-02-22T05:36:25.365Z,23.87
2018-02-22T05:36:59.866Z,23.95
2018-02-22T05:37:33.690Z,25.15
2018-02-22T05:38:07.356Z,23.80
2018-02-22T05:38:41.791Z,23.90
2018-02-22T05:39:15.454Z,23.50
2018-02-22T05:39:49.904Z,23.67
2018-02-22T05:40:23.585Z,22.83
2018-02-22T05:40:57.258Z,23.02
2018-02-22T05:41:30.923Z,23.70
2018-02-22T05:42:05.390Z,22.10
2018-02-22T05:42:39.059Z,24.20
2018-02-22T05:43:12.721Z,23.70
2018-02-22T05:43:47.161Z,24.65
2018-02-22T05:44:20.842Z,22.92
2018-02-22T05:44:54.503Z,23.38
2018-02-22T05:45:28.941Z,23.30
2018-02-22T05:46:02.655Z,24.10
2018-02-22T05:46:36.323Z,24.37
2018-02-22T05:47:10.164Z,23.95
2018-02-22T05:47:43.856Z,24.17
2018-02-22T05:48:17.531Z,22.95
2018-02-22T05:48:51.220Z,22.87
2018-02-22T05:49:24.895Z,23.33
2018-02-22T05:49:58.583Z,22.75
2018-02-22T05:50:32.262Z,24.65
2018-02-22T05:51:05.962Z,23.77
2018-02-22T05:51:39.705Z,22.67
2018-02-22T05:52:14.187Z,22.25
2018-02-22T05:52:47.872Z,23.52
2018-02-22T05:53:21.607Z,21.87
2018-02-22T05:53:55.273Z,23.50
2018-02-22T05:54:29.765Z,22.67
2018-02-22T05:55:03.439Z,23.62
2018-02-22T05:55:37.094Z,23.48
2018-02-22T05:56:10.763Z,22.80
2018-02-22T05:56:45.016Z,24.75
2018-02-22T05:57:18.718Z,23.20
2018-02-22T05:57:52.416Z,22.75
2018-02-22T05:58:25.909Z,23.30
2018-02-22T05:58:59.610Z,23.90
2018-02-22T05:59:34.048Z,21.80
2018-02-22T06:00:07.740Z,22.15
2018-02-22T06:00:41.417Z,22.98
2018-02-22T06:01:15.087Z,22.55
2018-02-22T06:01:49.525Z,21.90
2018-02-22T06:02:23.244Z,22.77
2018-02-22T06:02:56.924Z,24.83
2018-02-22T06:03:30.594Z,22.75
2018-02-22T06:04:04.268Z,23.20
2018-02-22T06:04:37.962Z,23.45
2018-02-22T06:05:12.386Z,24.90
2018-02-22T06:05:46.382Z,22.87
2018-02-22T06:06:20.063Z,24.52
2018-02-22T06:06:53.415Z,25.35
2018-02-22T06:07:27.105Z,24.08
2018-02-22T06:08:00.769Z,25.15
2018-02-22T06:08:34.441Z,25.77
2018-02-22T06:09:08.095Z,25.65
2018-02-22T06:09:42.544Z,26.70
2018-02-22T06:10:16.243Z,25.20
2018-02-22T06:10:49.914Z,27.13
2018-02-22T06:11:23.599Z,26.20
2018-02-22T06:11:57.273Z,25.67
2018-02-22T06:12:30.979Z,26.20
2018-02-22T06:13:04.650Z,25.33
2018-02-22T06:13:38.430Z,26.48
2018-02-22T06:14:12.862Z,25.40
2018-02-22T06:14:46.531Z,23.08
2018-02-22T06:15:20.975Z,25.00
2018-02-22T06:15:54.650Z,25.08
2018-02-22T06:16:28.312Z,24.70
2018-02-22T06:17:02.751Z,24.95
2018-02-22T06:17:36.471Z,25.27
2018-02-22T06:18:10.142Z,24.95
2018-02-22T06:18:43.854Z,23.85
2018-02-22T06:19:17.558Z,24.33
2018-02-22T06:19:51.412Z,25.40
2018-02-22T06:20:25.087Z,25.05
2018-02-22T06:20:58.779Z,24.75
2018-02-22T06:21:32.443Z,24.90
2018-02-22T06:22:06.891Z,25.20
2018-02-22T06:22:40.579Z,25.60
2018-02-22T06:23:15.003Z,25.05
2018-02-22T06:23:48.671Z,24.40
2018-02-22T06:24:22.337Z,24.63
2018-02-22T06:24:56.019Z,22.85
2018-02-22T06:25:30.458Z,24.08
2018-02-22T06:26:04.147Z,24.92
2018-02-22T06:26:37.821Z,24.08
2018-02-22T06:27:11.502Z,24.27
2018-02-22T06:27:45.205Z,23.80
2018-02-22T06:28:18.899Z,24.37
2018-02-22T06:28:52.614Z,24.98
2018-02-22T06:29:25.956Z,23.75
2018-02-22T06:29:59.644Z,24.00
2018-02-22T06:30:32.983Z,26.08
2018-02-22T06:31:06.653Z,25.55
2018-02-22T06:31:40.330Z,24.60
2018-02-22T06:32:13.995Z,24.87
2018-02-22T06:32:47.517Z,24.60
2018-02-22T06:33:21.012Z,26.55
2018-02-22T06:33:54.677Z,25.45
2018-02-22T06:34:28.347Z,25.08
2018-02-22T06:35:02.035Z,25.35
2018-02-22T06:35:35.723Z,25.70
2018-02-22T06:36:10.174Z,24.55
2018-02-22T06:36:43.868Z,24.67
2018-02-22T06:37:17.534Z,27.27
2018-02-22T06:37:51.234Z,24.55
2018-02-22T06:38:24.910Z,24.50
2018-02-22T06:38:58.579Z,25.00
2018-02-22T06:39:32.267Z,24.52
2018-02-22T06:40:06.712Z,26.45
2018-02-22T06:40:40.417Z,24.00
2018-02-22T06:41:14.091Z,25.40
2018-02-22T06:41:47.780Z,25.17
2018-02-22T06:42:21.458Z,25.92
2018-02-22T06:42:55.160Z,25.12
2018-02-22T06:43:28.850Z,23.87
2018-02-22T06:44:02.515Z,25.25
2018-02-22T06:44:36.178Z,25.58
2018-02-22T06:45:10.622Z,24.40
2018-02-22T06:45:44.284Z,25.33
2018-02-22T06:46:18.721Z,26.90
2018-02-22T06:46:52.382Z,24.87
2018-02-22T06:47:26.815Z,26.00
2018-02-22T06:48:00.516Z,25.40
2018-02-22T06:48:34.195Z,27.20
2018-02-22T06:49:07.874Z,25.15
2018-02-22T06:49:41.572Z,24.80
2018-02-22T06:50:15.441Z,25.75
2018-02-22T06:50:49.887Z,25.48
2018-02-22T06:51:23.575Z,26.30
2018-02-22T06:51:57.242Z,26.58
2018-02-22T06:52:30.918Z,25.25
2018-02-22T06:53:05.396Z,24.33
2018-02-22T06:53:39.082Z,26.12
2018-02-22T06:54:12.749Z,25.60
2018-02-22T06:54:46.092Z,26.45
2018-02-22T06:55:20.516Z,26.73
2018-02-22T06:55:54.195Z,26.02
2018-02-22T06:56:27.911Z,27.25
2018-02-22T06:57:01.574Z,27.73
2018-02-22T06:57:35.243Z,27.02
2018-02-22T06:58:08.940Z,25.35
2018-02-22T06:58:43.364Z,26.37
2018-02-22T06:59:17.038Z,26.33
2018-02-22T06:59:51.484Z,24.02
2018-02-22T07:00:25.149Z,25.50
2018-02-22T07:00:58.819Z,25.37
2018-02-22T07:01:33.250Z,25.42
2018-02-22T07:02:06.922Z,26.67
2018-02-22T07:02:41.377Z,26.85
2018-02-22T07:03:15.076Z,27.52
2018-02-22T07:03:48.748Z,26.40
2018-02-22T07:04:22.449Z,24.52
2018-02-22T07:04:56.120Z,25.30
2018-02-22T07:05:29.782Z,24.83
2018-02-22T07:06:03.473Z,24.73
2018-02-22T07:06:37.152Z,25.55
2018-02-22T07:07:10.817Z,25.73
2018-02-22T07:07:44.487Z,25.67
2018-02-22T07:08:18.189Z,25.33
2018-02-22T07:08:51.869Z,25.83
2018-02-22T07:09:25.542Z,25.05
2018-02-22T07:09:59.203Z,25.23
2018-02-22T07:10:32.881Z,26.30
2018-02-22T07:11:07.310Z,26.25
2018-02-22T07:11:41.000Z,27.05
2018-02-22T07:12:14.676Z,26.17
2018-02-22T07:12:48.372Z,26.08
2018-02-22T07:13:22.822Z,25.98
2018-02-22T07:13:56.509Z,25.35
2018-02-22T07:14:30.408Z,27.35
2018-02-22T07:15:04.335Z,24.63
2018-02-22T07:15:38.035Z,25.62